createdAt,value
2024-03-02T00:00:32.053Z,94.90
2024-03-02T00:01:32.154Z,94.69
2024-03-02T00:02:31.986Z,94.18
2024-03-02T00:03:31.973Z,94.18
2024-03-02T00:04:31.980Z,94.59
2024-03-02T00:05:31.961Z,94.38
2024-03-02T00:06:31.971Z,94.38
2024-03-02T00:07:31.949Z,94.59
2024-03-02T00:08:31.948Z,94.28
2024-03-02T00:09:31.965Z,94.28
2024-03-02T00:10:31.925Z,93.87
2024-03-02T00:11:32.005Z,93.97
2024-03-02T00:12:31.930Z,93.97
2024-03-02T00:13:31.905Z,93.87
2024-03-02T00:14:31.936Z,93.76
2024-03-02T00:15:31.902Z,94.79
2024-03-02T00:16:31.926Z,94.69
2024-03-02T00:17:31.893Z,95.42
2024-03-02T00:18:31.931Z,95.31
2024-03-02T00:19:31.864Z,96.03
2024-03-02T00:20:31.868Z,95.83
2024-03-02T00:21:31.880Z,95.73
2024-03-02T00:22:31.854Z,95.57
2024-03-02T00:23:31.868Z,96.03
2024-03-02T00:24:31.856Z,95.17
2024-03-02T00:25:31.856Z,94.85
2024-03-02T00:26:31.824Z,94.85
2024-03-02T00:27:31.842Z,94.65
2024-03-02T00:28:31.824Z,94.23
2024-03-02T00:29:31.799Z,94.23
2024-03-02T00:30:31.817Z,94.23
2024-03-02T00:31:31.816Z,94.34
2024-03-02T00:32:31.805Z,94.03
2024-03-02T00:33:31.804Z,94.23
2024-03-02T00:34:31.786Z,94.34
2024-03-02T00:35:31.760Z,94.44
2024-03-02T00:36:31.761Z,94.96
2024-03-02T00:37:31.752Z,95.37
2024-03-02T00:38:31.743Z,95.06
2024-03-02T00:39:31.743Z,94.96
2024-03-02T00:40:31.734Z,95.27
2024-03-02T00:41:31.764Z,95.37
2024-03-02T00:42:31.745Z,95.68
2024-03-02T00:43:31.720Z,95.27
2024-03-02T00:44:31.705Z,95.27
2024-03-02T00:45:31.726Z,95.27
2024-03-02T00:46:31.696Z,95.74
2024-03-02T00:47:31.693Z,95.12
2024-03-02T00:48:31.739Z,94.85
2024-03-02T00:49:31.659Z,95.12
2024-03-02T00:50:31.666Z,95.32
2024-03-02T00:51:31.741Z,95.22
2024-03-02T00:52:31.648Z,94.60
2024-03-02T00:53:31.629Z,95.28
2024-03-02T00:54:31.649Z,95.12
2024-03-02T00:55:31.629Z,95.22
2024-03-02T00:56:31.607Z,94.87
2024-03-02T00:57:31.721Z,95.02
2024-03-02T00:58:31.599Z,94.87
2024-03-02T00:59:31.596Z,94.77
2024-03-02T01:00:31.639Z,94.56
2024-03-02T01:01:31.635Z,94.15
2024-03-02T01:02:31.581Z,94.29
2024-03-02T01:03:31.665Z,94.25
2024-03-02T01:04:31.629Z,94.35
2024-03-02T01:05:31.576Z,94.25
2024-03-02T01:06:31.648Z,94.15
2024-03-02T01:07:31.540Z,94.40
2024-03-02T01:08:31.653Z,93.94
2024-03-02T01:09:31.567Z,94.15
2024-03-02T01:10:31.524Z,94.19
2024-03-02T01:11:31.518Z,94.40
2024-03-02T01:12:31.540Z,94.35
2024-03-02T01:13:31.531Z,94.60
2024-03-02T01:14:31.501Z,94.40
2024-03-02T01:15:31.508Z,94.40
2024-03-02T01:16:31.476Z,94.40
2024-03-02T01:17:31.486Z,94.40
2024-03-02T01:18:31.497Z,94.23
2024-03-02T01:19:31.504Z,94.50
2024-03-02T01:20:31.478Z,94.75
2024-03-02T01:21:31.470Z,94.34
2024-03-02T01:22:31.461Z,94.50
2024-03-02T01:23:31.441Z,94.54
2024-03-02T01:24:31.474Z,94.44
2024-03-02T01:25:31.439Z,94.34
2024-03-02T01:26:31.489Z,94.23
2024-03-02T01:27:31.420Z,94.54
2024-03-02T01:28:31.418Z,95.21
2024-03-02T01:29:31.438Z,95.83
2024-03-02T01:30:31.433Z,95.68
2024-03-02T01:31:31.400Z,95.52
2024-03-02T01:32:31.388Z,95.52
2024-03-02T01:33:31.401Z,95.78
2024-03-02T01:34:31.374Z,95.31
2024-03-02T01:35:31.354Z,95.62
2024-03-02T01:36:31.647Z,95.62
2024-03-02T01:37:31.346Z,95.57
2024-03-02T01:38:31.334Z,95.73
2024-03-02T01:39:31.422Z,95.62
2024-03-02T01:40:31.338Z,95.52
2024-03-02T01:41:31.327Z,95.52
2024-03-02T01:42:31.577Z,95.52
2024-03-02T01:43:31.311Z,95.62
2024-03-02T01:44:31.346Z,95.52
2024-03-02T01:45:31.325Z,95.48
2024-03-02T01:46:31.281Z,95.57
2024-03-02T01:47:31.311Z,95.78
2024-03-02T01:48:31.318Z,95.89
2024-03-02T01:49:31.253Z,95.27
2024-03-02T01:50:31.273Z,95.27
2024-03-02T01:51:31.287Z,95.17
2024-03-02T01:52:31.260Z,94.85
2024-03-02T01:53:32.233Z,94.34
2024-03-02T01:54:31.291Z,94.03
2024-03-02T01:55:31.368Z,94.18
2024-03-02T01:56:31.219Z,94.44
2024-03-02T01:57:31.246Z,94.79
2024-03-02T01:58:31.222Z,95.42
2024-03-02T01:59:31.291Z,95.52
2024-03-02T02:00:31.233Z,95.42
2024-03-02T02:01:31.218Z,95.21
2024-03-02T02:02:31.180Z,95.77
2024-03-02T02:03:31.222Z,95.25
2024-03-02T02:04:31.243Z,95.77
2024-03-02T02:05:31.153Z,95.56
2024-03-02T02:06:31.175Z,96.29
2024-03-02T02:07:31.138Z,96.91
2024-03-02T02:08:31.131Z,96.80
2024-03-02T02:09:31.173Z,96.59
2024-03-02T02:10:31.131Z,96.39
2024-03-02T02:11:31.148Z,96.91
2024-03-02T02:12:31.127Z,97.11
2024-03-02T02:13:31.101Z,97.26
2024-03-02T02:14:31.102Z,97.26
2024-03-02T02:15:31.232Z,97.16
2024-03-02T02:16:31.089Z,96.75
2024-03-02T02:17:31.086Z,96.95
2024-03-02T02:18:31.076Z,97.36
2024-03-02T02:19:31.071Z,97.26
2024-03-02T02:20:31.068Z,97.06
2024-03-02T02:21:31.104Z,97.16
2024-03-02T02:22:31.046Z,98.50
2024-03-02T02:23:31.043Z,97.78
2024-03-02T02:24:31.036Z,97.99
2024-03-02T02:25:31.154Z,97.57
2024-03-02T02:26:31.015Z,98.30
2024-03-02T02:27:31.049Z,97.78
2024-03-02T02:28:31.002Z,97.88
2024-03-02T02:29:30.999Z,97.78
2024-03-02T02:30:31.083Z,98.61
2024-03-02T02:31:30.986Z,98.44
2024-03-02T02:32:30.986Z,98.40
2024-03-02T02:33:30.991Z,98.96
2024-03-02T02:34:30.970Z,98.82
2024-03-02T02:35:30.974Z,98.24
2024-03-02T02:36:30.981Z,99.27
2024-03-02T02:37:30.934Z,99.27
2024-03-02T02:38:30.954Z,99.13
2024-03-02T02:39:30.976Z,98.55
2024-03-02T02:40:30.923Z,99.07
2024-03-02T02:41:30.946Z,98.86
2024-03-02T02:42:30.994Z,98.92
2024-03-02T02:43:30.905Z,99.73
2024-03-02T02:44:30.920Z,99.17
2024-03-02T02:45:30.972Z,98.86
2024-03-02T02:46:30.894Z,98.80
2024-03-02T02:47:30.925Z,99.01
2024-03-02T02:48:30.909Z,98.91
2024-03-02T02:49:30.861Z,99.99
2024-03-02T02:50:30.867Z,99.22
2024-03-02T02:51:30.895Z,99.84
2024-03-02T02:52:30.841Z,99.47
2024-03-02T02:53:30.867Z,99.99
2024-03-02T02:54:30.858Z,99.99
2024-03-02T02:55:30.882Z,99.99
2024-03-02T02:56:30.828Z,99.99
2024-03-02T02:57:30.874Z,99.99
2024-03-02T02:58:30.797Z,99.99
2024-03-02T02:59:30.805Z,99.99
2024-03-02T03:00:30.981Z,99.99
2024-03-02T03:01:30.944Z,99.99
2024-03-02T03:02:30.805Z,99.99
2024-03-02T03:03:30.820Z,99.99
2024-03-02T03:04:30.760Z,99.99
2024-03-02T03:05:30.763Z,99.63
2024-03-02T03:06:30.780Z,99.99
2024-03-02T03:07:30.744Z,99.52
2024-03-02T03:08:30.748Z,99.73
2024-03-02T03:09:30.769Z,99.78
2024-03-02T03:10:30.720Z,99.01
2024-03-02T03:11:30.789Z,99.37
2024-03-02T03:12:30.745Z,99.99
2024-03-02T03:13:30.707Z,99.99
2024-03-02T03:14:30.698Z,99.99
2024-03-02T03:15:30.731Z,99.99
2024-03-02T03:16:30.733Z,99.99
2024-03-02T03:17:30.713Z,99.99
2024-03-02T03:18:30.717Z,99.99
2024-03-02T03:19:30.674Z,99.99
2024-03-02T03:20:30.660Z,99.99
2024-03-02T03:21:30.682Z,99.99
2024-03-02T03:22:31.249Z,99.99
2024-03-02T03:23:30.641Z,99.99
2024-03-02T03:24:32.265Z,99.99
2024-03-02T03:25:30.630Z,99.99
2024-03-02T03:26:30.628Z,99.99
2024-03-02T03:27:30.645Z,99.99
2024-03-02T03:28:30.624Z,99.84
2024-03-02T03:29:30.611Z,99.11
2024-03-02T03:30:30.608Z,98.39
2024-03-02T03:31:30.594Z,98.43
2024-03-02T03:32:30.572Z,98.64
2024-03-02T03:33:30.612Z,98.22
2024-03-02T03:34:30.600Z,98.43
2024-03-02T03:35:30.580Z,98.22
2024-03-02T03:36:30.561Z,98.02
2024-03-02T03:37:30.553Z,97.81
2024-03-02T03:38:30.568Z,98.85
2024-03-02T03:39:30.553Z,98.33
2024-03-02T03:40:31.531Z,98.85
2024-03-02T03:41:30.528Z,98.22
2024-03-02T03:42:30.518Z,98.43
2024-03-02T03:43:30.528Z,98.85
2024-03-02T03:44:30.501Z,99.16
2024-03-02T03:45:30.552Z,99.26
2024-03-02T03:46:30.486Z,99.26
2024-03-02T03:47:30.503Z,99.26
2024-03-02T03:48:30.506Z,99.78
2024-03-02T03:49:30.499Z,99.88
2024-03-02T03:50:30.465Z,99.26
2024-03-02T03:51:30.466Z,99.37
2024-03-02T03:52:30.460Z,99.05
2024-03-02T03:53:30.462Z,99.37
2024-03-02T03:54:30.489Z,99.37
2024-03-02T03:55:30.459Z,99.16
2024-03-02T03:56:30.419Z,99.37
2024-03-02T03:57:30.438Z,98.85
2024-03-02T03:58:30.428Z,99.05
2024-03-02T03:59:30.432Z,98.74
2024-03-02T04:00:30.413Z,97.96
2024-03-02T04:01:30.433Z,98.27
2024-03-02T04:02:30.391Z,98.69
2024-03-02T04:03:30.388Z,98.48
2024-03-02T04:04:30.358Z,97.91
2024-03-02T04:05:30.418Z,98.69
2024-03-02T04:06:30.359Z,98.48
2024-03-02T04:07:30.341Z,99.41
2024-03-02T04:08:30.355Z,98.64
2024-03-02T04:09:30.353Z,99.37
2024-03-02T04:10:30.341Z,99.47
2024-03-02T04:11:31.358Z,99.88
2024-03-02T04:12:30.340Z,99.88
2024-03-02T04:13:30.317Z,99.26
2024-03-02T04:14:30.310Z,99.78
2024-03-02T04:15:30.315Z,99.78
2024-03-02T04:16:30.288Z,99.11
2024-03-02T04:17:30.304Z,99.68
2024-03-02T04:18:30.280Z,99.26
2024-03-02T04:19:30.314Z,98.74
2024-03-02T04:20:30.368Z,98.22
2024-03-02T04:21:30.311Z,98.85
2024-03-02T04:22:30.282Z,98.54
2024-03-02T04:23:30.237Z,98.17
2024-03-02T04:24:30.288Z,98.17
2024-03-02T04:25:30.238Z,98.48
2024-03-02T04:26:30.231Z,98.79
2024-03-02T04:27:30.250Z,99.52
2024-03-02T04:28:30.207Z,99.10
2024-03-02T04:29:30.204Z,99.99
2024-03-02T04:30:30.223Z,99.62
2024-03-02T04:31:30.203Z,99.88
2024-03-02T04:32:30.519Z,99.99
2024-03-02T04:33:30.255Z,99.37
2024-03-02T04:34:30.871Z,99.99
2024-03-02T04:35:30.173Z,99.26
2024-03-02T04:36:30.205Z,98.64
2024-03-02T04:37:30.198Z,99.05
2024-03-02T04:38:30.144Z,99.16
2024-03-02T04:39:30.430Z,99.21
2024-03-02T04:40:30.151Z,99.26
2024-03-02T04:41:30.128Z,98.43
2024-03-02T04:42:30.256Z,99.16
2024-03-02T04:43:30.128Z,99.16
2024-03-02T04:44:30.160Z,99.05
2024-03-02T04:45:30.221Z,98.64
2024-03-02T04:46:30.098Z,99.05
2024-03-02T04:47:30.101Z,99.26
2024-03-02T04:48:30.191Z,99.26
2024-03-02T04:49:30.216Z,98.95
2024-03-02T04:50:30.079Z,99.68
2024-03-02T04:51:30.142Z,99.47
2024-03-02T04:52:30.079Z,99.99
2024-03-02T04:53:30.030Z,99.05
2024-03-02T04:54:30.095Z,98.60
2024-03-02T04:55:30.034Z,99.47
2024-03-02T04:56:30.012Z,99.01
2024-03-02T04:57:30.043Z,99.01
2024-03-02T04:58:30.039Z,98.80
2024-03-02T04:59:30.665Z,99.01
2024-03-02T05:00:30.086Z,98.64
2024-03-02T05:01:30.085Z,98.64
2024-03-02T05:02:29.971Z,98.74
2024-03-02T05:03:30.003Z,99.16
2024-03-02T05:04:29.970Z,99.05
2024-03-02T05:05:29.972Z,98.85
2024-03-02T05:06:29.948Z,98.43
2024-03-02T05:07:29.962Z,98.74
2024-03-02T05:08:29.943Z,98.74
2024-03-02T05:09:29.974Z,98.90
2024-03-02T05:10:29.912Z,98.64
2024-03-02T05:11:29.930Z,98.43
2024-03-02T05:12:29.978Z,98.74
2024-03-02T05:13:29.966Z,98.43
2024-03-02T05:14:29.921Z,97.81
2024-03-02T05:15:29.987Z,98.74
2024-03-02T05:16:29.870Z,98.33
2024-03-02T05:17:29.923Z,97.91
2024-03-02T05:18:29.884Z,97.71
2024-03-02T05:19:29.865Z,97.71
2024-03-02T05:20:29.852Z,97.39
2024-03-02T05:21:29.861Z,97.71
2024-03-02T05:22:29.842Z,97.29
2024-03-02T05:23:29.822Z,97.34
2024-03-02T05:24:29.856Z,96.47
2024-03-02T05:25:29.816Z,97.19
2024-03-02T05:26:29.816Z,96.61
2024-03-02T05:27:29.844Z,96.09
2024-03-02T05:28:29.811Z,96.30
2024-03-02T05:29:29.797Z,95.93
2024-03-02T05:30:29.816Z,96.14
2024-03-02T05:31:29.780Z,95.83
2024-03-02T05:32:29.785Z,95.83
2024-03-02T05:33:29.911Z,96.30
2024-03-02T05:34:29.880Z,96.34
2024-03-02T05:35:29.750Z,97.07
2024-03-02T05:36:29.756Z,97.17
2024-03-02T05:37:29.736Z,97.07
2024-03-02T05:38:29.725Z,97.07
2024-03-02T05:39:30.881Z,97.28
2024-03-02T05:40:29.707Z,97.49
2024-03-02T05:41:29.703Z,97.64
2024-03-02T05:42:29.781Z,97.49
2024-03-02T05:43:29.719Z,96.81
2024-03-02T05:44:29.719Z,96.60
2024-03-02T05:45:30.785Z,96.29
2024-03-02T05:46:29.677Z,96.19
2024-03-02T05:47:29.711Z,95.98
2024-03-02T05:48:29.693Z,95.98
2024-03-02T05:49:29.661Z,95.77
2024-03-02T05:50:29.655Z,95.98
2024-03-02T05:51:29.653Z,96.12
2024-03-02T05:52:29.680Z,96.23
2024-03-02T05:53:29.642Z,96.02
2024-03-02T05:54:29.730Z,96.44
2024-03-02T05:55:29.614Z,96.44
2024-03-02T05:56:29.609Z,96.75
2024-03-02T05:57:29.646Z,97.58
2024-03-02T05:58:30.261Z,97.37
2024-03-02T05:59:29.592Z,97.47
2024-03-02T06:00:29.703Z,97.16
2024-03-02T06:01:29.856Z,97.27
2024-03-02T06:02:29.570Z,97.16
2024-03-02T06:03:29.743Z,97.33
2024-03-02T06:04:29.577Z,97.37
2024-03-02T06:05:29.554Z,97.37
2024-03-02T06:06:29.612Z,97.58
2024-03-02T06:07:29.581Z,97.37
2024-03-02T06:08:29.561Z,97.99
2024-03-02T06:09:29.572Z,99.55
2024-03-02T06:10:29.515Z,99.44
2024-03-02T06:11:29.594Z,99.82
2024-03-02T06:12:29.524Z,99.71
2024-03-02T06:13:29.494Z,99.99
2024-03-02T06:14:29.533Z,99.92
2024-03-02T06:15:29.563Z,99.40
2024-03-02T06:16:29.471Z,99.98
2024-03-02T06:17:29.543Z,99.99
2024-03-02T06:18:29.635Z,99.46
2024-03-02T06:19:29.475Z,99.25
2024-03-02T06:20:31.092Z,99.15
2024-03-02T06:21:29.500Z,99.15
2024-03-02T06:22:29.441Z,98.83
2024-03-02T06:23:29.456Z,98.42
2024-03-02T06:24:29.436Z,98.21
2024-03-02T06:25:29.484Z,97.49
2024-03-02T06:26:29.424Z,96.86
2024-03-02T06:27:29.455Z,97.53
2024-03-02T06:28:29.418Z,96.50
2024-03-02T06:29:29.402Z,96.70
2024-03-02T06:30:29.435Z,97.43
2024-03-02T06:31:29.416Z,97.38
2024-03-02T06:32:29.407Z,98.42
2024-03-02T06:33:29.429Z,98.94
2024-03-02T06:34:29.360Z,98.73
2024-03-02T06:35:29.370Z,98.73
2024-03-02T06:36:29.532Z,98.90
2024-03-02T06:37:29.350Z,99.00
2024-03-02T06:38:29.329Z,99.10
2024-03-02T06:39:30.279Z,98.38
2024-03-02T06:40:29.310Z,98.69
2024-03-02T06:41:29.326Z,97.75
2024-03-02T06:42:29.323Z,97.29
2024-03-02T06:43:29.301Z,97.60
2024-03-02T06:44:29.297Z,97.39
2024-03-02T06:45:29.308Z,97.29
2024-03-02T06:46:29.281Z,97.39
2024-03-02T06:47:29.298Z,97.39
2024-03-02T06:48:29.266Z,96.88
2024-03-02T06:49:29.249Z,96.73
2024-03-02T06:50:30.259Z,96.94
2024-03-02T06:51:29.318Z,96.73
2024-03-02T06:52:29.237Z,96.11
2024-03-02T06:53:29.226Z,96.21
2024-03-02T06:54:29.312Z,96.52
2024-03-02T06:55:29.276Z,96.37
2024-03-02T06:56:29.230Z,96.06
2024-03-02T06:57:29.230Z,95.54
2024-03-02T06:58:29.218Z,95.86
2024-03-02T06:59:29.186Z,95.71
2024-03-02T07:00:29.217Z,95.71
2024-03-02T07:01:29.314Z,95.92
2024-03-02T07:02:29.178Z,96.19
2024-03-02T07:03:29.201Z,95.46
2024-03-02T07:04:29.739Z,95.36
2024-03-02T07:05:29.157Z,94.53
2024-03-02T07:06:29.262Z,94.32
2024-03-02T07:07:29.222Z,94.84
2024-03-02T07:08:29.125Z,94.22
2024-03-02T07:09:30.240Z,94.28
2024-03-02T07:10:29.130Z,93.91
2024-03-02T07:11:29.155Z,93.66
2024-03-02T07:12:29.142Z,93.87
2024-03-02T07:13:29.100Z,93.87
2024-03-02T07:14:29.101Z,93.87
2024-03-02T07:15:29.129Z,93.82
2024-03-02T07:16:29.294Z,93.82
2024-03-02T07:17:29.123Z,93.82
2024-03-02T07:18:29.097Z,91.86
2024-03-02T07:19:29.078Z,92.38
2024-03-02T07:20:29.072Z,92.27
2024-03-02T07:21:29.089Z,92.07
2024-03-02T07:22:29.059Z,92.13
2024-03-02T07:23:29.064Z,91.77
2024-03-02T07:24:29.052Z,91.88
2024-03-02T07:27:30.062Z,91.28
2024-03-02T07:28:29.009Z,90.92
2024-03-02T07:29:29.171Z,90.88
2024-03-02T07:30:30.340Z,90.43
2024-03-02T07:31:29.004Z,90.80
2024-03-02T07:32:28.993Z,90.75
2024-03-02T07:33:29.025Z,90.57
2024-03-02T07:34:28.978Z,90.67
2024-03-02T07:35:29.067Z,89.56
2024-03-02T07:36:29.056Z,89.11
2024-03-02T07:37:28.947Z,88.76
2024-03-02T07:38:28.980Z,86.50
2024-03-02T07:39:28.962Z,85.64
2024-03-02T07:40:28.933Z,85.54
2024-03-02T07:41:28.943Z,82.97
2024-03-02T07:42:28.977Z,82.77
2024-03-02T07:43:28.939Z,83.39
2024-03-02T07:44:28.915Z,83.49
2024-03-02T07:45:28.979Z,80.62
2024-03-02T07:46:28.879Z,80.45
2024-03-02T07:47:28.921Z,82.60
2024-03-02T07:48:28.896Z,81.68
2024-03-02T07:49:28.875Z,82.50
2024-03-02T07:50:28.859Z,82.91
2024-03-02T07:51:28.861Z,83.22
2024-03-02T07:52:28.853Z,83.46
2024-03-02T07:53:28.827Z,83.26
2024-03-02T07:54:28.890Z,83.61
2024-03-02T07:55:28.867Z,84.32
2024-03-02T07:56:28.876Z,84.63
2024-03-02T07:57:28.822Z,84.32
2024-03-02T07:58:28.815Z,83.61
2024-03-02T07:59:28.810Z,83.70
2024-03-02T08:00:28.814Z,84.01
2024-03-02T08:01:29.036Z,84.05
2024-03-02T08:02:28.787Z,83.95
2024-03-02T08:03:28.808Z,83.95
2024-03-02T08:04:28.761Z,83.75
2024-03-02T08:05:28.763Z,84.16
2024-03-02T08:06:28.790Z,84.47
2024-03-02T08:07:28.736Z,84.98
2024-03-02T08:08:28.734Z,84.67
2024-03-02T08:09:28.741Z,85.08
2024-03-02T08:10:28.739Z,85.90
2024-03-02T08:11:28.855Z,86.15
2024-03-02T08:12:28.729Z,86.11
2024-03-02T08:13:28.691Z,86.11
2024-03-02T08:14:29.245Z,86.11
2024-03-02T08:15:28.732Z,86.72
2024-03-02T08:16:29.724Z,86.52
2024-03-02T08:17:28.689Z,86.17
2024-03-02T08:18:28.697Z,86.27
2024-03-02T08:19:28.653Z,86.68
2024-03-02T08:20:28.654Z,86.07
2024-03-02T08:21:28.704Z,86.07
2024-03-02T08:22:28.652Z,86.48
2024-03-02T08:23:28.631Z,86.48
2024-03-02T08:24:28.643Z,85.97
2024-03-02T08:25:28.621Z,86.75
2024-03-02T08:26:28.605Z,86.33
2024-03-02T08:27:28.653Z,86.75
2024-03-02T08:28:28.751Z,86.13
2024-03-02T08:29:28.579Z,85.68
2024-03-02T08:30:28.631Z,85.17
2024-03-02T08:31:28.572Z,85.58
2024-03-02T08:32:28.684Z,85.13
2024-03-02T08:33:28.605Z,85.23
2024-03-02T08:34:28.606Z,84.61
2024-03-02T08:35:28.568Z,85.23
2024-03-02T08:36:28.545Z,85.03
2024-03-02T08:37:28.566Z,85.30
2024-03-02T08:38:28.522Z,85.19
2024-03-02T08:39:28.551Z,85.39
2024-03-02T08:40:28.520Z,84.99
2024-03-02T08:41:28.522Z,84.64
2024-03-02T08:42:28.533Z,85.15
2024-03-02T08:43:28.499Z,85.05
2024-03-02T08:44:28.510Z,84.80
2024-03-02T08:45:28.534Z,85.01
2024-03-02T08:46:28.480Z,84.70
2024-03-02T08:47:28.509Z,83.95
2024-03-02T08:48:28.490Z,83.64
2024-03-02T08:49:28.443Z,84.05
2024-03-02T08:50:28.439Z,84.36
2024-03-02T08:51:28.518Z,84.11
2024-03-02T08:52:28.466Z,83.81
2024-03-02T08:53:28.440Z,82.78
2024-03-02T08:54:28.442Z,82.27
2024-03-02T08:55:28.406Z,81.86
2024-03-02T08:56:28.440Z,81.86
2024-03-02T08:57:28.432Z,82.23
2024-03-02T08:58:28.395Z,82.13
2024-03-02T08:59:28.391Z,81.62
2024-03-02T09:00:28.396Z,81.10
2024-03-02T09:01:28.492Z,81.41
2024-03-02T09:02:28.379Z,81.10
2024-03-02T09:03:28.428Z,80.90
2024-03-02T09:04:29.526Z,80.05
2024-03-02T09:05:28.357Z,80.05
2024-03-02T09:06:28.365Z,80.87
2024-03-02T09:07:28.332Z,80.56
2024-03-02T09:08:28.331Z,80.35
2024-03-02T09:09:28.340Z,79.70
2024-03-02T09:10:28.916Z,80.11
2024-03-02T09:11:29.361Z,79.19
2024-03-02T09:12:28.357Z,79.46
2024-03-02T09:13:28.308Z,79.70
2024-03-02T09:14:28.296Z,79.39
2024-03-02T09:15:28.348Z,78.85
2024-03-02T09:16:28.279Z,79.29
2024-03-02T09:17:28.278Z,78.54
2024-03-02T09:18:28.334Z,78.85
2024-03-02T09:19:28.255Z,78.23
2024-03-02T09:20:28.244Z,78.44
2024-03-02T09:21:28.251Z,78.34
2024-03-02T09:22:28.281Z,78.64
2024-03-02T09:23:28.248Z,78.75
2024-03-02T09:24:28.224Z,78.34
2024-03-02T09:25:28.209Z,77.72
2024-03-02T09:26:28.200Z,77.83
2024-03-02T09:27:28.228Z,78.09
2024-03-02T09:28:28.216Z,78.61
2024-03-02T09:29:28.180Z,78.20
2024-03-02T09:30:28.196Z,77.69
2024-03-02T09:31:28.181Z,77.08
2024-03-02T09:32:28.189Z,77.69
2024-03-02T09:33:28.322Z,77.83
2024-03-02T09:34:28.174Z,77.93
2024-03-02T09:35:28.220Z,78.23
2024-03-02T09:36:28.143Z,77.83
2024-03-02T09:37:28.147Z,78.30
2024-03-02T09:38:28.157Z,78.20
2024-03-02T09:39:28.157Z,78.20
2024-03-02T09:40:28.163Z,77.79
2024-03-02T09:41:28.114Z,78.37
2024-03-02T09:42:28.134Z,78.53
2024-03-02T09:43:28.088Z,77.82
2024-03-02T09:44:28.089Z,77.82
2024-03-02T09:45:28.164Z,77.51
2024-03-02T09:46:28.075Z,77.51
2024-03-02T09:47:28.127Z,76.53
2024-03-02T09:48:28.062Z,76.39
2024-03-02T09:49:28.069Z,76.56
2024-03-02T09:50:28.044Z,75.84
2024-03-02T09:51:28.076Z,74.11
2024-03-02T09:52:28.019Z,74.28
2024-03-02T09:53:28.045Z,76.51
2024-03-02T09:54:28.086Z,75.93
2024-03-02T09:55:28.036Z,73.57
2024-03-02T09:56:28.002Z,72.58
2024-03-02T09:57:27.998Z,72.04
2024-03-02T09:58:27.998Z,70.15
2024-03-02T09:59:27.981Z,69.75
2024-03-02T10:00:27.990Z,66.22
2024-03-02T10:01:28.019Z,67.63
2024-03-02T10:02:27.969Z,65.83
2024-03-02T10:03:27.979Z,62.62
2024-03-02T10:04:27.989Z,61.50
2024-03-02T10:05:27.957Z,56.80
2024-03-02T10:06:27.959Z,55.05
2024-03-02T10:07:27.930Z,52.04
2024-03-02T10:08:27.917Z,53.59
2024-03-02T10:09:27.920Z,51.54
2024-03-02T10:10:27.919Z,49.50
2024-03-02T10:11:27.906Z,49.05
2024-03-02T10:12:27.923Z,50.62
2024-03-02T10:13:27.881Z,47.56
2024-03-02T10:14:27.878Z,47.17
2024-03-02T10:15:27.961Z,49.01
2024-03-02T10:16:27.858Z,51.99
2024-03-02T10:17:27.871Z,53.62
2024-03-02T10:18:27.907Z,55.33
2024-03-02T10:19:27.844Z,51.44
2024-03-02T10:20:27.846Z,52.22
2024-03-02T10:21:27.836Z,53.85
2024-03-02T10:22:27.823Z,58.20
2024-03-02T10:23:28.736Z,59.94
2024-03-02T10:24:27.848Z,58.93
2024-03-02T10:25:37.337Z,60.22
2024-03-02T10:26:29.815Z,59.64
2024-03-02T10:27:27.824Z,60.85
2024-03-02T10:28:27.780Z,60.10
2024-03-02T10:29:27.782Z,60.50
2024-03-02T10:30:27.786Z,60.91
2024-03-02T10:31:27.773Z,61.62
2024-03-02T10:32:27.779Z,60.91
2024-03-02T10:33:27.759Z,61.32
2024-03-02T10:34:27.737Z,60.61
2024-03-02T10:35:27.729Z,60.17
2024-03-02T10:36:27.815Z,63.28
2024-03-02T10:37:27.734Z,59.76
2024-03-02T10:38:27.724Z,59.12
2024-03-02T10:39:27.755Z,59.42
2024-03-02T10:40:27.711Z,58.06
2024-03-02T10:41:27.689Z,57.28
2024-03-02T10:42:27.721Z,53.90
2024-03-02T10:43:27.690Z,55.76
2024-03-02T10:44:27.689Z,53.50
2024-03-02T10:45:27.686Z,51.29
2024-03-02T10:46:27.656Z,48.46
2024-03-02T10:47:27.679Z,48.66
2024-03-02T10:48:27.663Z,50.34
2024-03-02T10:49:27.658Z,50.34
2024-03-02T10:50:27.668Z,50.24
2024-03-02T10:51:27.636Z,48.99
2024-03-02T10:52:27.617Z,49.13
2024-03-02T10:53:27.623Z,49.41
2024-03-02T10:54:28.053Z,49.76
2024-03-02T10:55:27.987Z,48.30
2024-03-02T10:56:27.624Z,50.38
2024-03-02T10:57:27.743Z,50.85
2024-03-02T10:58:27.794Z,53.40
2024-03-02T10:59:27.700Z,53.40
2024-03-02T11:00:27.632Z,54.68
2024-03-02T11:01:27.630Z,53.52
2024-03-02T11:02:27.549Z,52.80
2024-03-02T11:03:27.566Z,51.94
2024-03-02T11:04:27.541Z,50.79
2024-03-02T11:05:27.539Z,48.99
2024-03-02T11:06:27.537Z,48.11
2024-03-02T11:07:27.537Z,46.99
2024-03-02T11:08:27.516Z,45.79
2024-03-02T11:09:27.797Z,45.39
2024-03-02T11:10:27.510Z,44.95
2024-03-02T11:11:27.557Z,45.51
2024-03-02T11:12:27.540Z,43.47
2024-03-02T11:13:27.498Z,42.23
2024-03-02T11:14:27.487Z,40.04
2024-03-02T11:15:27.514Z,41.47
2024-03-02T11:16:27.494Z,41.55
2024-03-02T11:17:27.458Z,42.21
2024-03-02T11:18:27.491Z,40.00
2024-03-02T11:19:27.567Z,39.64
2024-03-02T11:20:27.477Z,41.24
2024-03-02T11:21:27.480Z,40.70
2024-03-02T11:22:27.429Z,42.99
2024-03-02T11:23:27.418Z,42.81
2024-03-02T11:24:27.533Z,42.10
2024-03-02T11:25:27.433Z,42.21
2024-03-02T11:26:27.408Z,41.46
2024-03-02T11:27:27.585Z,43.21
2024-03-02T11:28:27.394Z,43.74
2024-03-02T11:29:27.381Z,45.02
2024-03-02T11:30:27.391Z,46.85
2024-03-02T11:31:27.522Z,47.85
2024-03-02T11:32:27.390Z,46.65
2024-03-02T11:33:27.463Z,47.27
2024-03-02T11:34:27.353Z,46.23
2024-03-02T11:35:27.388Z,47.17
2024-03-02T11:36:27.397Z,47.88
2024-03-02T11:37:27.330Z,46.23
2024-03-02T11:38:27.389Z,46.73
2024-03-02T11:39:27.360Z,46.12
2024-03-02T11:40:27.324Z,45.53
2024-03-02T11:41:27.326Z,45.99
2024-03-02T11:42:27.307Z,47.80
2024-03-02T11:43:27.296Z,47.09
2024-03-02T11:44:27.286Z,47.30
2024-03-02T11:45:27.284Z,46.37
2024-03-02T11:46:27.267Z,47.07
2024-03-02T11:47:27.294Z,46.41
2024-03-02T11:48:27.285Z,47.64
2024-03-02T11:49:27.252Z,48.55
2024-03-02T11:50:27.278Z,47.44
2024-03-02T11:51:27.255Z,47.66
2024-03-02T11:52:27.221Z,48.92
2024-03-02T11:53:27.242Z,48.84
2024-03-02T11:54:27.243Z,48.94
2024-03-02T11:55:27.200Z,49.65
2024-03-02T11:56:27.201Z,50.70
2024-03-02T11:57:27.196Z,50.82
2024-03-02T11:58:27.203Z,50.35
2024-03-02T11:59:27.189Z,49.57
2024-03-02T12:00:27.252Z,49.44
2024-03-02T12:01:27.891Z,50.45
2024-03-02T12:02:27.178Z,49.35
2024-03-02T12:03:27.632Z,49.24
2024-03-02T12:04:27.167Z,49.27
2024-03-02T12:05:27.156Z,48.50
2024-03-02T12:06:27.165Z,50.12
2024-03-02T12:07:27.127Z,50.98
2024-03-02T12:08:27.140Z,51.40
2024-03-02T12:09:27.141Z,52.94
2024-03-02T12:10:27.110Z,53.42
2024-03-02T12:11:27.128Z,52.21
2024-03-02T12:12:27.139Z,52.74
2024-03-02T12:13:27.086Z,52.03
2024-03-02T12:14:27.086Z,53.65
2024-03-02T12:15:27.098Z,53.25
2024-03-02T12:16:27.125Z,53.47
2024-03-02T12:17:27.060Z,53.98
2024-03-02T12:18:27.593Z,54.71
2024-03-02T12:19:27.044Z,53.67
2024-03-02T12:20:27.035Z,54.05
2024-03-02T12:21:27.039Z,54.03
2024-03-02T12:22:27.020Z,53.52
2024-03-02T12:23:27.088Z,52.74
2024-03-02T12:24:27.013Z,53.65
2024-03-02T12:25:26.992Z,53.52
2024-03-02T12:26:26.992Z,53.45
2024-03-02T12:27:27.012Z,53.63
2024-03-02T12:28:26.996Z,53.02
2024-03-02T12:29:26.967Z,52.01
2024-03-02T12:30:27.017Z,53.52
2024-03-02T12:31:26.951Z,52.51
2024-03-02T12:32:26.945Z,52.82
2024-03-02T12:33:27.013Z,53.50
2024-03-02T12:34:27.003Z,51.56
2024-03-02T12:35:27.009Z,52.16
2024-03-02T12:36:26.977Z,50.52
2024-03-02T12:37:26.941Z,50.60
2024-03-02T12:38:26.973Z,50.50
2024-03-02T12:39:26.922Z,51.10
2024-03-02T12:40:26.919Z,49.37
2024-03-02T12:41:28.875Z,49.04
2024-03-02T12:42:26.908Z,49.52
2024-03-02T12:43:26.891Z,48.69
2024-03-02T12:44:26.872Z,48.87
2024-03-02T12:45:27.023Z,49.18
2024-03-02T12:46:26.878Z,48.87
2024-03-02T12:47:26.882Z,48.65
2024-03-02T12:48:26.861Z,48.22
2024-03-02T12:49:26.825Z,48.43
2024-03-02T12:50:26.829Z,47.70
2024-03-02T12:51:26.896Z,47.39
2024-03-02T12:52:26.811Z,48.10
2024-03-02T12:53:26.809Z,48.02
2024-03-02T12:54:26.802Z,47.82